LIEE/CAG METAR and TAF weather

Enter ICAO airport designator
Station Type Date Time Source
LIEE METAR 2019/02/18 03:50 UTC NOAA

LIEE 180350Z 32004KT 280V350 9999 FEW030 05/04 Q1026


Station Type Date Time Source
LIEE Decoded METAR 2019/02/18 03:50 UTC NOAA

Cagliari / Elmas, Italy (LIEE) 39-15N 009-04E 5M
Feb 17, 2019 - 10:50 PM EST / 2019.02.18 0350 UTC
Wind: from the NW (320 degrees) at 5 MPH (4 KT) (direction variable):0
Visibility: greater than 7 mile(s):0
Sky conditions: mostly clear
Temperature: 41 F (5 C)
Dew Point: 39 F (4 C)
Relative Humidity: 93%
Pressure (altimeter): 30.30 in. Hg (1026 hPa)
ob: LIEE 180350Z 32004KT 280V350 9999 FEW030 05/04 Q1026
cycle: 4

Station Type Date Time Source
LIEE TAF 2019/02/17 18:21 UTC NOAA

TAF LIEE 171700Z 1718/1818 VRB04KT CAVOK
TEMPO 1802/1806 1500 BR
BECMG 1809/1811 16010KT


Example: see airport list